createdAt,value
2019-03-31T00:00:52.234Z,68.70
2019-03-31T00:03:20.905Z,68.80
2019-03-31T00:05:49.532Z,68.80
2019-03-31T00:08:18.243Z,69.00
2019-03-31T00:10:46.785Z,68.80
2019-03-31T00:13:15.429Z,69.00
2019-03-31T00:15:44.124Z,69.10
2019-03-31T00:18:12.694Z,69.00
2019-03-31T00:20:41.277Z,70.00
2019-03-31T00:23:09.845Z,69.20
2019-03-31T00:25:40.065Z,69.70
2019-03-31T00:28:08.754Z,69.30
2019-03-31T00:30:37.386Z,69.40
2019-03-31T00:33:05.969Z,69.80
2019-03-31T00:35:34.611Z,70.70
2019-03-31T00:38:06.189Z,70.50
2019-03-31T00:40:34.792Z,70.30
2019-03-31T00:43:03.454Z,70.40
2019-03-31T00:45:32.103Z,71.00
2019-03-31T00:48:00.752Z,70.90
2019-03-31T00:50:29.461Z,70.70
2019-03-31T00:52:58.038Z,70.60
2019-03-31T00:55:26.734Z,71.10
2019-03-31T00:57:55.558Z,71.40
2019-03-31T01:00:44.462Z,71.20
2019-03-31T01:03:13.097Z,71.60
2019-03-31T01:05:42.912Z,72.00
2019-03-31T01:08:13.074Z,71.70
2019-03-31T01:10:42.110Z,72.20
2019-03-31T01:13:10.855Z,72.10
2019-03-31T01:15:39.707Z,72.40
2019-03-31T01:18:09.286Z,72.40
2019-03-31T01:20:37.934Z,72.10
2019-03-31T01:23:06.680Z,71.80
2019-03-31T01:25:35.380Z,72.20
2019-03-31T01:28:04.121Z,72.40
2019-03-31T01:30:35.499Z,72.40
2019-03-31T01:33:04.711Z,72.80
2019-03-31T01:35:33.977Z,72.90
2019-03-31T01:38:02.744Z,73.00
2019-03-31T01:40:31.618Z,73.30
2019-03-31T01:43:00.390Z,73.20
2019-03-31T01:45:29.076Z,73.70
2019-03-31T01:47:58.390Z,73.60
2019-03-31T01:50:27.067Z,73.50
2019-03-31T01:52:55.937Z,73.60
2019-03-31T01:55:24.552Z,73.60
2019-03-31T01:57:53.288Z,73.50
2019-03-31T02:00:27.499Z,73.40
2019-03-31T02:02:56.163Z,73.60
2019-03-31T02:05:24.934Z,73.80
2019-03-31T02:07:53.741Z,74.00
2019-03-31T02:10:22.521Z,73.50
2019-03-31T02:12:51.283Z,73.80
2019-03-31T02:15:19.937Z,73.80
2019-03-31T02:17:48.556Z,74.50
2019-03-31T02:20:17.322Z,74.00
2019-03-31T02:22:46.198Z,73.80
2019-03-31T02:25:14.791Z,73.70
2019-03-31T02:27:43.653Z,73.70
2019-03-31T02:30:12.939Z,73.90
2019-03-31T02:32:44.606Z,74.00
2019-03-31T02:35:13.385Z,74.10
2019-03-31T02:37:42.074Z,73.90
2019-03-31T02:40:10.870Z,74.00
2019-03-31T02:42:39.462Z,74.30
2019-03-31T02:45:08.535Z,74.50
2019-03-31T02:47:37.240Z,74.70
2019-03-31T02:50:06.947Z,74.60
2019-03-31T02:52:35.691Z,74.60
2019-03-31T02:55:04.891Z,74.70
2019-03-31T02:57:34.280Z,74.90
2019-03-31T03:00:03.051Z,75.00
2019-03-31T03:02:42.157Z,75.20
2019-03-31T03:05:18.373Z,75.00
2019-03-31T03:07:37.445Z,75.10
2019-03-31T03:10:07.346Z,75.00
2019-03-31T03:12:37.692Z,75.30
2019-03-31T03:15:06.862Z,75.50
2019-03-31T03:17:35.508Z,75.70
2019-03-31T03:20:05.112Z,75.70
2019-03-31T03:22:33.729Z,75.60
2019-03-31T03:25:02.434Z,76.00
2019-03-31T03:27:31.071Z,76.40
2019-03-31T03:29:59.720Z,75.90
2019-03-31T03:32:28.286Z,76.00
2019-03-31T03:34:56.993Z,76.20
2019-03-31T03:37:25.530Z,75.90
2019-03-31T03:39:54.128Z,76.00
2019-03-31T03:42:22.639Z,76.90
2019-03-31T03:44:51.310Z,75.90
2019-03-31T03:47:19.883Z,76.10
2019-03-31T03:49:48.485Z,76.00
2019-03-31T03:52:17.065Z,76.10
2019-03-31T03:54:45.778Z,75.70
2019-03-31T03:57:14.339Z,75.90
2019-03-31T03:59:43.014Z,75.80
2019-03-31T04:02:11.625Z,76.00
2019-03-31T04:04:40.201Z,75.80
2019-03-31T04:07:08.745Z,75.90
2019-03-31T04:09:37.414Z,76.00
2019-03-31T04:12:06.125Z,76.10
2019-03-31T04:14:34.717Z,76.20
2019-03-31T04:17:03.369Z,75.90
2019-03-31T04:19:31.978Z,76.10
2019-03-31T04:22:00.608Z,75.80
2019-03-31T04:24:30.843Z,76.00
2019-03-31T04:26:59.475Z,76.00
2019-03-31T04:29:28.081Z,75.80
2019-03-31T04:31:56.737Z,76.20
2019-03-31T04:34:25.229Z,75.90
2019-03-31T04:36:53.786Z,75.40
2019-03-31T04:39:22.413Z,75.60
2019-03-31T04:41:50.951Z,74.60
2019-03-31T04:44:19.600Z,75.60
2019-03-31T04:46:48.230Z,75.60
2019-03-31T04:49:16.873Z,75.20
2019-03-31T04:51:45.526Z,75.70
2019-03-31T04:54:14.129Z,75.40
2019-03-31T04:56:42.686Z,75.90
2019-03-31T04:59:11.215Z,75.70
2019-03-31T05:01:39.848Z,75.70
2019-03-31T05:04:08.510Z,75.30
2019-03-31T05:06:36.996Z,75.50
2019-03-31T05:09:06.257Z,75.40
2019-03-31T05:11:35.089Z,75.30
2019-03-31T05:14:03.815Z,75.40
2019-03-31T05:16:32.388Z,75.60
2019-03-31T05:19:00.922Z,75.50
2019-03-31T05:21:29.401Z,75.40
2019-03-31T05:23:58.029Z,75.50
2019-03-31T05:26:26.578Z,76.00
2019-03-31T05:28:55.133Z,75.60
2019-03-31T05:31:23.698Z,76.10
2019-03-31T05:33:52.163Z,75.40
2019-03-31T05:36:20.732Z,75.40
2019-03-31T05:38:49.311Z,76.80
2019-03-31T05:41:17.877Z,76.30
2019-03-31T05:43:46.488Z,75.00
2019-03-31T05:46:15.054Z,75.10
2019-03-31T05:48:43.655Z,73.30
2019-03-31T05:51:12.279Z,73.40
2019-03-31T05:53:40.958Z,74.20
2019-03-31T05:56:09.715Z,74.40
2019-03-31T05:58:38.241Z,73.70
2019-03-31T06:01:06.900Z,73.90
2019-03-31T06:03:35.480Z,73.70
2019-03-31T06:06:04.119Z,73.30
2019-03-31T06:08:32.670Z,73.00
2019-03-31T06:11:01.350Z,72.80
2019-03-31T06:13:29.937Z,72.40
2019-03-31T06:15:58.617Z,71.90
2019-03-31T06:18:27.107Z,71.90
2019-03-31T06:20:55.742Z,72.00
2019-03-31T06:23:24.405Z,71.90
2019-03-31T06:25:53.824Z,70.80
2019-03-31T06:28:22.495Z,70.90
2019-03-31T06:30:51.029Z,70.70
2019-03-31T06:33:19.714Z,70.20
2019-03-31T06:35:48.601Z,69.20
2019-03-31T06:38:17.342Z,69.00
2019-03-31T06:40:47.627Z,68.40
2019-03-31T06:43:16.313Z,68.50
2019-03-31T06:45:44.858Z,68.10
2019-03-31T06:48:13.423Z,67.60
2019-03-31T06:50:42.165Z,67.10
2019-03-31T06:53:10.702Z,66.40
2019-03-31T06:55:39.426Z,66.80
2019-03-31T06:58:08.084Z,65.40
2019-03-31T07:00:36.798Z,65.20
2019-03-31T07:03:05.810Z,65.30
2019-03-31T07:05:34.419Z,65.10
2019-03-31T07:08:03.426Z,64.50
2019-03-31T07:10:32.050Z,64.00
2019-03-31T07:13:00.682Z,63.20
2019-03-31T07:15:29.368Z,62.50
2019-03-31T07:17:58.002Z,62.70
2019-03-31T07:20:26.622Z,61.90
2019-03-31T07:22:56.895Z,61.60
2019-03-31T07:25:25.429Z,61.00
2019-03-31T07:27:54.035Z,61.10
2019-03-31T07:30:23.125Z,60.30
2019-03-31T07:32:51.683Z,60.60
2019-03-31T07:35:20.278Z,60.30
2019-03-31T07:37:50.418Z,59.90
2019-03-31T07:40:21.827Z,60.00
2019-03-31T07:42:51.254Z,60.10
2019-03-31T07:45:21.180Z,59.40
2019-03-31T07:47:49.745Z,59.30
2019-03-31T07:50:19.595Z,59.40
2019-03-31T07:52:48.225Z,59.10
2019-03-31T07:55:17.538Z,58.60
2019-03-31T07:57:54.669Z,58.10
2019-03-31T08:00:25.914Z,57.50
2019-03-31T08:02:56.079Z,57.50
2019-03-31T08:05:32.910Z,57.00
2019-03-31T08:07:55.069Z,57.30
2019-03-31T08:10:23.668Z,57.60
2019-03-31T08:12:52.439Z,57.00
2019-03-31T08:15:21.197Z,57.20
2019-03-31T08:17:49.966Z,56.00
2019-03-31T08:20:30.667Z,54.60
2019-03-31T08:22:58.238Z,53.80
2019-03-31T08:25:26.826Z,52.20
2019-03-31T08:27:57.296Z,50.40
2019-03-31T08:30:25.917Z,48.60
2019-03-31T08:32:55.586Z,47.30
2019-03-31T08:35:24.198Z,45.50
2019-03-31T08:37:52.834Z,43.90
2019-03-31T08:40:21.730Z,42.00
2019-03-31T08:42:56.394Z,42.90
2019-03-31T08:45:35.520Z,42.50
2019-03-31T08:50:48.674Z,40.30
2019-03-31T08:53:17.416Z,40.60
2019-03-31T08:55:46.014Z,42.40
2019-03-31T08:58:14.739Z,42.10
2019-03-31T09:00:44.920Z,42.80
2019-03-31T09:03:13.722Z,41.20
2019-03-31T09:05:42.344Z,38.90
2019-03-31T09:08:11.086Z,38.20
2019-03-31T09:10:39.775Z,40.00
2019-03-31T09:13:08.370Z,39.90
2019-03-31T09:15:38.007Z,38.60
2019-03-31T09:18:06.764Z,39.40
2019-03-31T09:20:35.491Z,37.00
2019-03-31T09:23:04.045Z,35.50
2019-03-31T09:25:32.790Z,36.00
2019-03-31T09:28:01.473Z,36.80
2019-03-31T09:30:30.125Z,36.50
2019-03-31T09:32:58.814Z,35.70
2019-03-31T09:35:27.342Z,34.30
2019-03-31T09:37:55.897Z,34.60
2019-03-31T09:40:24.528Z,35.50
2019-03-31T09:42:53.214Z,35.00
2019-03-31T09:45:21.864Z,36.50
2019-03-31T09:47:50.397Z,34.50
2019-03-31T09:50:19.205Z,33.90
2019-03-31T09:52:47.927Z,35.40
2019-03-31T09:55:16.697Z,36.60
2019-03-31T09:57:45.313Z,36.40
2019-03-31T10:00:22.647Z,36.10
2019-03-31T10:02:51.189Z,35.10
2019-03-31T10:05:19.798Z,34.10
2019-03-31T10:07:48.493Z,32.70
2019-03-31T10:10:20.149Z,33.30
2019-03-31T10:12:48.732Z,31.10
2019-03-31T10:15:20.114Z,32.30
2019-03-31T10:17:48.674Z,34.90
2019-03-31T10:20:17.195Z,33.10
2019-03-31T10:22:45.842Z,32.20
2019-03-31T10:25:14.507Z,32.90
2019-03-31T10:27:43.004Z,34.20
2019-03-31T10:30:11.783Z,31.80
2019-03-31T10:32:40.416Z,32.80
2019-03-31T10:35:09.289Z,31.80
2019-03-31T10:37:37.997Z,33.40
2019-03-31T10:40:08.058Z,31.10
2019-03-31T10:42:36.760Z,32.20
2019-03-31T10:45:07.556Z,33.20
2019-03-31T10:47:36.271Z,31.50
2019-03-31T10:50:06.797Z,31.80
2019-03-31T10:52:35.554Z,29.50
2019-03-31T10:55:05.837Z,30.80
2019-03-31T10:57:34.486Z,30.30
2019-03-31T11:00:05.191Z,30.00
2019-03-31T11:02:34.618Z,29.90
2019-03-31T11:05:03.242Z,29.70
2019-03-31T11:07:32.010Z,29.80
2019-03-31T11:10:00.757Z,29.50
2019-03-31T11:12:29.725Z,30.20
2019-03-31T11:14:58.270Z,31.10
2019-03-31T11:17:26.941Z,29.50
2019-03-31T11:19:55.603Z,28.80
2019-03-31T11:22:25.860Z,28.10
2019-03-31T11:24:54.426Z,27.90
2019-03-31T11:27:23.200Z,26.90
2019-03-31T11:29:51.978Z,27.10
2019-03-31T11:32:20.580Z,27.50
2019-03-31T11:34:49.256Z,27.60
2019-03-31T11:37:17.810Z,28.40
2019-03-31T11:39:46.444Z,28.30
2019-03-31T11:42:14.970Z,26.90
2019-03-31T11:44:43.586Z,27.20
2019-03-31T11:47:12.187Z,27.10
2019-03-31T11:49:40.841Z,27.40
2019-03-31T11:52:09.480Z,26.50
2019-03-31T11:54:38.101Z,26.50
2019-03-31T11:57:06.681Z,26.50
2019-03-31T11:59:35.436Z,26.40
2019-03-31T12:02:04.201Z,26.50
2019-03-31T12:04:32.824Z,25.20
2019-03-31T12:07:01.464Z,25.20
2019-03-31T12:09:30.187Z,25.00
2019-03-31T12:11:58.828Z,25.80
2019-03-31T12:14:27.433Z,24.10
2019-03-31T12:16:55.914Z,23.20
2019-03-31T12:19:24.450Z,25.10
2019-03-31T12:21:53.019Z,26.50
2019-03-31T12:24:21.563Z,26.70
2019-03-31T12:26:50.123Z,26.70
2019-03-31T12:29:18.739Z,26.40
2019-03-31T12:31:47.444Z,25.50
2019-03-31T12:34:16.061Z,25.60
2019-03-31T12:36:44.609Z,26.20
2019-03-31T12:39:13.290Z,26.00
2019-03-31T12:41:41.939Z,25.80
2019-03-31T12:44:10.467Z,25.70
2019-03-31T12:46:39.129Z,26.20
2019-03-31T12:49:07.806Z,25.10
2019-03-31T12:51:36.373Z,23.80
2019-03-31T12:54:05.012Z,24.10
2019-03-31T12:56:33.550Z,25.40
2019-03-31T12:59:02.056Z,25.50
2019-03-31T13:01:30.681Z,25.60
2019-03-31T13:03:59.221Z,24.60
2019-03-31T13:06:27.853Z,24.10
2019-03-31T13:08:56.357Z,24.40
2019-03-31T13:11:24.901Z,24.70
2019-03-31T13:13:53.534Z,24.20
2019-03-31T13:16:22.146Z,25.10
2019-03-31T13:18:50.637Z,24.40
2019-03-31T13:21:19.290Z,24.70
2019-03-31T13:23:47.852Z,23.30
2019-03-31T13:26:16.474Z,23.90
2019-03-31T13:28:45.361Z,24.80
2019-03-31T13:31:13.980Z,25.50
2019-03-31T13:33:42.556Z,25.40
2019-03-31T13:36:11.229Z,24.20
2019-03-31T13:38:40.061Z,23.10
2019-03-31T13:41:08.848Z,24.50
2019-03-31T13:43:37.569Z,24.90
2019-03-31T13:46:07.438Z,24.20
2019-03-31T13:48:36.007Z,24.20
2019-03-31T13:51:04.705Z,24.00
2019-03-31T13:53:33.299Z,24.50
2019-03-31T13:56:02.000Z,25.30
2019-03-31T13:58:31.032Z,25.30
2019-03-31T14:01:01.051Z,25.00
2019-03-31T14:03:29.752Z,25.00
2019-03-31T14:05:58.503Z,26.20
2019-03-31T14:08:27.298Z,26.30
2019-03-31T14:10:55.905Z,26.60
2019-03-31T14:13:24.537Z,29.60
2019-03-31T14:15:53.075Z,30.40
2019-03-31T14:18:21.760Z,31.60
2019-03-31T14:20:50.466Z,31.80
2019-03-31T14:23:19.082Z,32.00
2019-03-31T14:25:47.818Z,32.70
2019-03-31T14:28:16.355Z,33.10
2019-03-31T14:30:44.921Z,33.10
2019-03-31T14:33:13.558Z,32.40
2019-03-31T14:35:42.314Z,33.40
2019-03-31T14:38:10.916Z,33.50
2019-03-31T14:40:39.577Z,34.70
2019-03-31T14:43:08.155Z,35.40
2019-03-31T14:45:37.338Z,35.60
2019-03-31T14:48:06.070Z,35.40
2019-03-31T14:50:41.529Z,35.90
2019-03-31T14:53:10.398Z,35.70
2019-03-31T14:55:39.081Z,34.80
2019-03-31T14:58:08.494Z,35.00
2019-03-31T15:00:37.410Z,35.20
2019-03-31T15:03:06.134Z,35.40
2019-03-31T15:05:34.986Z,35.70
2019-03-31T15:08:05.183Z,36.30
2019-03-31T15:10:33.858Z,37.50
2019-03-31T15:13:02.714Z,37.80
2019-03-31T15:15:31.211Z,38.10
2019-03-31T15:17:59.958Z,38.10
2019-03-31T15:20:29.844Z,37.80
2019-03-31T15:22:58.544Z,37.20
2019-03-31T15:25:27.180Z,37.30
2019-03-31T15:27:55.947Z,37.10
2019-03-31T15:30:24.687Z,37.20
2019-03-31T15:32:53.299Z,37.50
2019-03-31T15:35:21.969Z,38.10
2019-03-31T15:37:50.572Z,37.70
2019-03-31T15:40:19.180Z,38.20
2019-03-31T15:42:47.782Z,38.50
2019-03-31T15:45:16.536Z,38.50
2019-03-31T15:47:45.199Z,39.70
2019-03-31T15:50:14.210Z,40.00
2019-03-31T15:52:42.823Z,39.90
2019-03-31T15:55:11.637Z,40.10
2019-03-31T15:57:40.318Z,40.10
2019-03-31T16:00:09.803Z,40.30
2019-03-31T16:02:38.430Z,40.10
2019-03-31T16:05:08.442Z,39.70
2019-03-31T16:07:37.127Z,39.60
2019-03-31T16:10:06.729Z,39.30
2019-03-31T16:12:35.408Z,39.50
2019-03-31T16:15:06.089Z,39.10
2019-03-31T16:17:34.785Z,38.60
2019-03-31T16:20:06.400Z,39.10
2019-03-31T16:22:34.999Z,39.20
2019-03-31T16:25:08.617Z,39.30
2019-03-31T16:27:37.737Z,38.90
2019-03-31T16:30:07.846Z,39.00
2019-03-31T16:32:37.990Z,39.30
2019-03-31T16:35:06.754Z,39.80
2019-03-31T16:37:35.558Z,40.30
2019-03-31T16:40:06.292Z,40.70
2019-03-31T16:42:35.166Z,41.10
2019-03-31T16:45:05.707Z,41.30
2019-03-31T16:47:34.317Z,41.20
2019-03-31T16:50:03.816Z,41.00
2019-03-31T16:52:32.384Z,41.10
2019-03-31T16:55:00.992Z,41.30
2019-03-31T16:57:29.630Z,41.80
2019-03-31T16:59:58.361Z,41.50
2019-03-31T17:02:27.044Z,41.60
2019-03-31T17:04:55.670Z,42.00
2019-03-31T17:07:24.538Z,41.60
2019-03-31T17:09:53.180Z,41.60
2019-03-31T17:12:21.877Z,41.60
2019-03-31T17:14:50.527Z,41.50
2019-03-31T17:17:19.329Z,41.70
2019-03-31T17:19:47.892Z,41.80
2019-03-31T17:22:16.557Z,42.00
2019-03-31T17:24:45.236Z,42.00
2019-03-31T17:27:14.317Z,42.10
2019-03-31T17:29:43.186Z,42.10
2019-03-31T17:32:11.795Z,42.30
2019-03-31T17:34:40.526Z,42.10
2019-03-31T17:37:09.264Z,42.50
2019-03-31T17:39:38.121Z,42.20
2019-03-31T17:42:09.852Z,42.50
2019-03-31T17:44:38.520Z,42.50
2019-03-31T17:47:06.998Z,42.60
2019-03-31T17:49:35.837Z,42.90
2019-03-31T17:52:04.638Z,43.10
2019-03-31T17:54:33.274Z,43.20
2019-03-31T17:57:02.019Z,43.30
2019-03-31T17:59:30.564Z,43.40
2019-03-31T18:01:59.716Z,43.50
2019-03-31T18:04:28.551Z,43.70
2019-03-31T18:07:02.883Z,43.90
2019-03-31T18:09:31.608Z,44.20
2019-03-31T18:12:01.131Z,44.70
2019-03-31T18:14:29.786Z,44.50
2019-03-31T18:16:58.372Z,44.70
2019-03-31T18:19:27.132Z,44.70
2019-03-31T18:21:55.911Z,44.90
2019-03-31T18:24:24.491Z,45.00
2019-03-31T18:26:53.135Z,45.60
2019-03-31T18:29:21.685Z,45.20
2019-03-31T18:31:50.442Z,45.30
2019-03-31T18:34:18.974Z,45.30
2019-03-31T18:36:47.754Z,45.50
2019-03-31T18:39:17.183Z,45.70
2019-03-31T18:41:45.919Z,45.50
2019-03-31T18:44:14.578Z,45.80
2019-03-31T18:46:43.185Z,46.40
2019-03-31T18:49:11.806Z,46.50
2019-03-31T18:51:40.476Z,46.20
2019-03-31T18:54:13.457Z,46.10
2019-03-31T18:56:43.670Z,46.70
2019-03-31T18:59:32.067Z,46.50
2019-03-31T19:02:11.212Z,46.60
2019-03-31T19:04:44.366Z,46.90
2019-03-31T19:07:17.493Z,46.80
2019-03-31T19:10:00.886Z,47.10
2019-03-31T19:12:43.162Z,47.00
2019-03-31T19:15:19.544Z,47.10
2019-03-31T19:17:52.518Z,47.30
2019-03-31T19:20:38.163Z,47.40
2019-03-31T19:23:11.158Z,47.60
2019-03-31T19:25:50.801Z,47.80
2019-03-31T19:28:21.113Z,47.70
2019-03-31T19:30:51.842Z,48.00
2019-03-31T19:33:30.051Z,48.40
2019-03-31T19:36:03.120Z,48.00
2019-03-31T19:38:39.271Z,48.30
2019-03-31T19:41:09.550Z,48.50
2019-03-31T19:43:55.134Z,48.80
2019-03-31T19:46:31.260Z,48.70
2019-03-31T19:49:01.506Z,48.90
2019-03-31T19:51:48.082Z,48.80
2019-03-31T19:54:36.561Z,49.00
2019-03-31T19:57:06.672Z,48.90
2019-03-31T19:59:45.999Z,49.10
2019-03-31T20:02:16.519Z,49.00
2019-03-31T20:04:46.757Z,49.10
2019-03-31T20:07:16.948Z,49.00
2019-03-31T20:09:58.907Z,49.10
2019-03-31T20:12:32.186Z,49.60
2019-03-31T20:15:05.400Z,49.40
2019-03-31T20:17:35.661Z,49.70
2019-03-31T20:20:07.939Z,49.70
2019-03-31T20:22:40.852Z,50.20
2019-03-31T20:25:16.763Z,49.90
2019-03-31T20:27:49.796Z,49.90
2019-03-31T20:30:26.233Z,50.00
2019-03-31T20:32:56.518Z,50.10
2019-03-31T20:35:32.543Z,50.00
2019-03-31T20:38:11.842Z,50.10
2019-03-31T20:40:42.082Z,50.20
2019-03-31T20:43:14.935Z,50.20
2019-03-31T20:45:43.620Z,50.30
2019-03-31T20:48:12.245Z,50.20
2019-03-31T20:50:40.792Z,50.20
2019-03-31T20:53:09.462Z,50.40
2019-03-31T20:55:38.177Z,50.60
2019-03-31T20:58:06.818Z,50.40
2019-03-31T21:00:35.450Z,50.80
2019-03-31T21:03:04.086Z,51.00
2019-03-31T21:05:32.737Z,51.30
2019-03-31T21:08:01.365Z,51.40
2019-03-31T21:10:30.005Z,51.70
2019-03-31T21:12:58.713Z,51.90
2019-03-31T21:15:27.262Z,52.30
2019-03-31T21:17:55.889Z,52.50
2019-03-31T21:20:24.425Z,52.60
2019-03-31T21:22:53.083Z,53.70
2019-03-31T21:25:21.666Z,53.20
2019-03-31T21:27:50.323Z,53.10
2019-03-31T21:30:19.029Z,53.50
2019-03-31T21:32:47.505Z,53.70
2019-03-31T21:35:16.085Z,53.90
2019-03-31T21:37:44.778Z,53.80
2019-03-31T21:40:13.600Z,54.20
2019-03-31T21:42:42.258Z,54.40
2019-03-31T21:45:10.985Z,54.90
2019-03-31T21:47:39.602Z,55.30
2019-03-31T21:50:08.702Z,55.90
2019-03-31T21:52:37.308Z,56.70
2019-03-31T21:55:06.838Z,57.30
2019-03-31T21:57:35.449Z,57.70
2019-03-31T22:00:09.845Z,58.30
2019-03-31T22:02:38.527Z,58.40
2019-03-31T22:05:08.677Z,59.00
2019-03-31T22:07:37.291Z,59.80
2019-03-31T22:10:07.083Z,60.20
2019-03-31T22:12:35.697Z,60.70
2019-03-31T22:15:05.548Z,61.20
2019-03-31T22:17:34.183Z,61.80
2019-03-31T22:20:02.867Z,62.40
2019-03-31T22:22:31.500Z,62.60
2019-03-31T22:25:00.056Z,62.80
2019-03-31T22:27:28.786Z,63.40
2019-03-31T22:29:57.381Z,63.50
2019-03-31T22:32:26.085Z,64.00
2019-03-31T22:34:54.709Z,64.20
2019-03-31T22:37:23.260Z,64.20
2019-03-31T22:39:51.806Z,64.50
2019-03-31T22:42:20.443Z,64.80
2019-03-31T22:44:49.023Z,65.30
2019-03-31T22:47:17.656Z,65.60
2019-03-31T22:49:46.262Z,65.90
2019-03-31T22:52:14.830Z,66.40
2019-03-31T22:54:43.381Z,66.30
2019-03-31T22:57:12.009Z,66.50
2019-03-31T22:59:40.678Z,66.90
2019-03-31T23:02:09.359Z,67.40
2019-03-31T23:04:38.080Z,67.80
2019-03-31T23:07:06.632Z,68.40
2019-03-31T23:09:35.344Z,68.50
2019-03-31T23:12:03.905Z,68.60
2019-03-31T23:14:32.462Z,69.00
2019-03-31T23:17:01.184Z,69.50
2019-03-31T23:19:29.717Z,69.70
2019-03-31T23:21:58.257Z,69.80
2019-03-31T23:24:26.830Z,70.30
2019-03-31T23:26:55.439Z,70.60
2019-03-31T23:29:24.144Z,71.20
2019-03-31T23:31:52.897Z,71.50
2019-03-31T23:34:21.466Z,71.60
2019-03-31T23:36:50.016Z,71.80
2019-03-31T23:39:18.485Z,72.00
2019-03-31T23:41:47.127Z,72.50
2019-03-31T23:44:15.666Z,72.70
2019-03-31T23:46:44.171Z,72.80
2019-03-31T23:49:12.698Z,72.90
2019-03-31T23:51:41.273Z,73.10
2019-03-31T23:54:09.932Z,72.80
2019-03-31T23:56:38.470Z,73.00
2019-03-31T23:59:07.001Z,73.20
